Terminal Aerodrome Forecast
Issued by NWS Green Bay, WI

Home | Current Version | Previous Version | Graphics & Text | Print | Product List | Glossary On
Versions: 1 2 3 4 5 6 7 8 9 10 11 12 13 14 15 16 17 18 19 20 21 22 23 24 25 26 27 28 29 30
793
FTUS43 KGRB 170520
TAFGRB
TAF
KGRB 170520Z 1706/1806 20008KT P6SM SCT250
     FM171300 21011G17KT P6SM OVC035 WS017/23035KT
     FM171700 22013G20KT 3SM -SHSN SCT022 OVC035
     FM172100 24009KT P6SM -SHSN BKN040
     FM180300 26008KT P6SM SCT035=

USA.gov is the U.S. government's official web portal to all federal, state and local government web resources and services.